Time;durP1;ratioP1;P1;durP2;ratioP2;P2;SDS_P1;SDS_P2;PMS_P1;PMS_P2;Temp;Humidity;BMP_temperature;BMP_pressure;BME280_temperature;BME280_humidity;BME280_pressure;Samples;Min_cycle;Max_cycle;Signal;HPM_P1;HPM_P2
2020/12/11 00:01:38;;;;;;;164.18;61.53;;;;;;;-1.23;75.02;96383.11;1683493;83;25835;-89
2020/12/11 00:04:06;;;;;;;158.05;58.10;;;;;;;-1.25;75.06;96382.93;1683604;83;26425;-92
2020/12/11 00:06:33;;;;;;;145.55;56.77;;;;;;;-1.27;75.04;96373.00;1682497;84;27574;-90
2020/12/11 00:09:01;;;;;;;133.20;54.45;;;;;;;-1.38;74.94;96384.73;1683457;83;25902;-88
2020/12/11 00:11:30;;;;;;;125.78;51.15;;;;;;;-1.49;74.99;96389.83;1683450;84;25793;-87
2020/12/11 00:13:58;;;;;;;119.97;49.95;;;;;;;-1.53;75.19;96394.28;1683404;83;25836;-94
2020/12/11 00:16:25;;;;;;;111.00;47.55;;;;;;;-1.50;75.37;96393.96;1683409;84;25784;-87
2020/12/11 00:18:52;;;;;;;118.05;48.70;;;;;;;-1.45;75.42;96399.09;1683319;83;28223;-88
2020/12/11 00:21:20;;;;;;;114.90;48.58;;;;;;;-1.43;75.35;96402.90;1683005;84;25758;-88
2020/12/11 00:23:48;;;;;;;126.35;51.85;;;;;;;-1.38;75.38;96413.02;1683314;83;25921;-93
2020/12/11 00:26:18;;;;;;;129.82;51.98;;;;;;;-1.39;75.24;96416.16;1683448;84;25781;-86
2020/12/11 00:28:46;;;;;;;137.90;54.08;;;;;;;-1.38;75.23;96413.84;1683519;83;25833;-87
2020/12/11 00:31:13;;;;;;;143.22;56.40;;;;;;;-1.37;75.19;96415.51;1683422;84;27505;-90
2020/12/11 00:33:40;;;;;;;152.27;57.83;;;;;;;-1.34;75.25;96415.19;1683193;84;25860;-87
2020/12/11 00:36:08;;;;;;;123.62;52.83;;;;;;;-1.38;74.96;96413.02;1683405;83;25746;-87
2020/12/11 00:38:35;;;;;;;133.25;52.17;;;;;;;-1.45;75.00;96420.79;1683339;83;25889;-87
2020/12/11 00:41:03;;;;;;;139.75;57.17;;;;;;;-1.45;75.02;96423.44;1683367;84;25842;-87
2020/12/11 00:43:30;;;;;;;143.82;56.37;;;;;;;-1.47;75.05;96425.41;1683204;84;28504;-86
2020/12/11 00:45:58;;;;;;;140.25;56.25;;;;;;;-1.50;75.07;96423.91;1683203;84;25753;-87
2020/12/11 00:48:26;;;;;;;139.75;54.25;;;;;;;-1.49;75.05;96422.09;1683211;84;25756;-87
2020/12/11 00:50:53;;;;;;;143.87;54.40;;;;;;;-1.50;74.99;96421.75;1683273;83;25912;-86
2020/12/11 00:53:20;;;;;;;154.75;58.02;;;;;;;-1.53;74.94;96426.03;1683454;83;25821;-87
2020/12/11 00:55:48;;;;;;;153.55;61.42;;;;;;;-1.57;74.83;96422.87;1683275;83;27558;-87
2020/12/11 00:58:15;;;;;;;147.75;61.92;;;;;;;-1.61;74.81;96426.02;1683255;83;26118;-87
2020/12/11 01:00:43;;;;;;;132.63;56.50;;;;;;;-1.63;74.78;96424.02;1683236;83;25832;-89
2020/12/11 01:03:10;;;;;;;133.30;55.70;;;;;;;-1.63;74.73;96429.31;1683360;83;26388;-88
2020/12/11 01:05:38;;;;;;;128.32;52.85;;;;;;;-1.69;74.63;96431.28;1683284;83;25761;-86
2020/12/11 01:08:06;;;;;;;127.45;50.88;;;;;;;-1.78;74.63;96429.57;1683454;84;27358;-86
2020/12/11 01:10:34;;;;;;;131.35;53.55;;;;;;;-1.78;74.77;96422.95;1683244;83;25875;-88
2020/12/11 01:13:01;;;;;;;122.02;52.98;;;;;;;-1.81;74.77;96415.67;1683347;83;26286;-87
2020/12/11 01:15:28;;;;;;;114.45;51.88;;;;;;;-1.82;74.78;96409.24;1683210;84;25829;-86
2020/12/11 01:17:56;;;;;;;131.18;56.10;;;;;;;-1.83;74.76;96412.38;1683386;83;25781;-87
2020/12/11 01:20:23;;;;;;;132.97;55.43;;;;;;;-1.86;74.78;96404.75;1683343;84;28893;-86
2020/12/11 01:22:51;;;;;;;129.38;55.12;;;;;;;-1.94;74.62;96402.58;1683381;83;25327;-86
2020/12/11 01:25:19;;;;;;;144.32;60.15;;;;;;;-2.16;74.41;96403.92;1683356;84;25853;-86
2020/12/11 01:27:46;;;;;;;122.20;53.10;;;;;;;-2.24;74.53;96405.21;1683256;83;26768;-86
2020/12/11 01:30:13;;;;;;;113.47;47.43;;;;;;;-2.33;74.65;96404.84;1683399;83;25586;-85
2020/12/11 01:32:41;;;;;;;109.40;47.48;;;;;;;-2.30;74.84;96408.50;1686653;83;28357;-86
2020/12/11 01:35:08;;;;;;;108.30;46.90;;;;;;;-2.30;74.87;96393.47;1688772;83;26301;-86
2020/12/11 01:37:36;;;;;;;108.78;46.85;;;;;;;-2.24;74.99;96391.99;1688725;83;25722;-86
2020/12/11 01:40:05;;;;;;;117.75;48.30;;;;;;;-2.22;74.83;96398.79;1688641;83;25895;-85
2020/12/11 01:42:33;;;;;;;114.52;47.53;;;;;;;-2.29;74.81;96399.55;1688612;83;25780;-86
2020/12/11 01:45:00;;;;;;;110.48;45.63;;;;;;;-2.32;74.72;96399.39;1694472;84;27432;-85
2020/12/11 01:47:27;;;;;;;126.00;51.10;;;;;;;-2.35;74.63;96398.38;1701071;82;25433;-87
2020/12/11 01:49:56;;;;;;;114.97;49.70;;;;;;;-2.37;74.59;96391.58;1700854;82;25733;-87
2020/12/11 01:52:24;;;;;;;125.65;50.92;;;;;;;-2.37;74.61;96397.70;1700644;84;25916;-87
2020/12/11 01:54:52;;;;;;;117.85;49.90;;;;;;;-2.39;74.60;96389.09;1701125;82;25793;-88
2020/12/11 01:57:43;;;;;;;109.52;49.08;;;;;;;-2.40;74.44;96395.85;1700771;84;27507;-86
2020/12/11 02:00:10;;;;;;;123.95;49.03;;;;;;;-2.42;74.48;96397.36;1697039;82;25774;-85
2020/12/11 02:02:39;;;;;;;105.75;46.60;;;;;;;-2.48;74.31;96407.70;1701216;82;25897;-86
2020/12/11 02:05:09;;;;;;;110.92;46.68;;;;;;;-2.58;74.42;96404.67;1699961;82;27068;-90
2020/12/11 02:07:40;;;;;;;109.92;47.33;;;;;;;-2.58;74.47;96406.00;1698299;84;25872;-86
2020/12/11 02:10:09;;;;;;;109.15;46.23;;;;;;;-2.57;74.58;96401.54;1668672;84;28551;-86
2020/12/11 02:12:37;;;;;;;110.28;47.33;;;;;;;-2.60;74.57;96397.39;1697723;84;25785;-88
2020/12/11 02:15:06;;;;;;;101.25;44.53;;;;;;;-2.65;74.46;96390.41;1697788;84;25843;-92
2020/12/11 02:17:38;;;;;;;107.10;45.75;;;;;;;-2.71;74.39;96387.08;1697787;84;27024;-89
2020/12/11 02:20:06;;;;;;;101.18;42.75;;;;;;;-2.77;74.34;96387.67;1698173;84;25777;-93
2020/12/11 02:22:33;;;;;;;99.47;41.25;;;;;;;-2.82;74.35;96382.05;1697845;84;27519;-85
2020/12/11 02:25:01;;;;;;;90.57;39.75;;;;;;;-2.85;74.37;96384.98;1697917;84;25939;-85
2020/12/11 02:27:28;;;;;;;84.80;38.67;;;;;;;-2.84;74.45;96391.92;1697907;84;25762;-86
2020/12/11 02:29:56;;;;;;;94.75;38.70;;;;;;;-2.84;74.44;96394.56;1697919;84;25837;-86
2020/12/11 02:32:23;;;;;;;80.40;36.58;;;;;;;-2.85;74.32;96401.32;1697827;84;25933;-86
2020/12/11 02:34:50;;;;;;;80.72;36.33;;;;;;;-2.85;74.37;96400.00;1698067;84;27498;-94
2020/12/11 02:37:18;;;;;;;86.53;35.45;;;;;;;-2.85;74.40;96396.87;1698217;84;25790;-86
2020/12/11 02:39:45;;;;;;;86.37;36.28;;;;;;;-2.87;74.30;96393.55;1698273;84;25847;-88
2020/12/11 02:42:14;;;;;;;85.20;37.10;;;;;;;-2.92;74.20;96390.06;1698176;84;25886;-89
2020/12/11 02:44:41;;;;;;;88.62;36.08;;;;;;;-2.95;74.16;96392.17;1694835;84;26546;-84
2020/12/11 02:47:09;;;;;;;93.12;36.90;;;;;;;-3.01;74.19;96385.67;1683447;84;28541;-85
2020/12/11 02:49:36;;;;;;;87.78;36.65;;;;;;;-3.00;74.21;96378.09;1683394;84;25688;-85
2020/12/11 02:52:03;;;;;;;84.07;35.05;;;;;;;-3.07;73.91;96380.19;1683476;84;25784;-85
2020/12/11 02:54:30;;;;;;;86.97;38.02;;;;;;;-3.21;73.75;96381.55;1683425;84;25892;-84
2020/12/11 02:56:58;;;;;;;95.17;40.00;;;;;;;-3.28;73.93;96381.34;1683528;84;25338;-84
2020/12/11 02:59:25;;;;;;;97.85;39.42;;;;;;;-3.24;74.17;96379.69;1683497;84;28456;-86
2020/12/11 03:01:52;;;;;;;94.95;38.02;;;;;;;-3.21;74.27;96384.67;1683386;84;26055;-85
2020/12/11 03:04:20;;;;;;;88.50;37.25;;;;;;;-3.27;74.12;96373.76;1683531;84;25358;-86
2020/12/11 03:06:47;;;;;;;97.33;39.67;;;;;;;-3.28;74.34;96373.41;1683445;84;25875;-87
2020/12/11 03:09:14;;;;;;;95.15;38.60;;;;;;;-3.23;74.51;96374.75;1683493;84;25767;-86
2020/12/11 03:11:42;;;;;;;79.47;35.23;;;;;;;-3.18;74.43;96374.65;1683366;84;27570;-84
2020/12/11 03:14:09;;;;;;;91.30;36.38;;;;;;;-3.20;74.29;96373.14;1683213;84;25791;-85
2020/12/11 03:16:36;;;;;;;87.10;36.53;;;;;;;-3.28;74.16;96376.05;1683398;84;25804;-84
2020/12/11 03:19:04;;;;;;;85.67;37.67;;;;;;;-3.30;74.20;96375.38;1683511;84;25800;-84
2020/12/11 03:21:31;;;;;;;86.87;36.83;;;;;;;-3.34;74.20;96374.00;1683520;84;26239;-87
2020/12/11 03:23:58;;;;;;;83.47;35.05;;;;;;;-3.41;74.11;96366.85;1683278;84;27586;-83
2020/12/11 03:26:25;;;;;;;75.47;32.40;;;;;;;-3.45;74.23;96370.76;1683130;84;26130;-84
2020/12/11 03:28:53;;;;;;;72.82;32.25;;;;;;;-3.50;74.19;96380.43;1683451;84;25814;-85
2020/12/11 03:31:20;;;;;;;73.02;32.05;;;;;;;-3.53;74.32;96385.20;1683441;84;25809;-85
2020/12/11 03:33:48;;;;;;;68.80;30.00;;;;;;;-3.51;74.41;96380.13;1683568;84;25753;-83
2020/12/11 03:36:21;;;;;;;73.42;30.17;;;;;;;-3.47;74.48;96388.05;1683522;84;28522;-84
2020/12/11 03:38:49;;;;;;;74.80;32.83;;;;;;;-3.46;74.39;96391.52;1683344;84;25741;-86
2020/12/11 03:41:17;;;;;;;89.47;37.83;;;;;;;-3.45;74.38;96386.10;1683521;84;25892;-86
2020/12/11 03:43:45;;;;;;;85.90;36.85;;;;;;;-3.45;74.41;96382.14;1683454;84;25913;-84
2020/12/11 03:46:22;;;;;;;87.67;36.80;;;;;;;-3.46;74.33;96385.76;1683372;83;25952;-84
2020/12/11 03:48:51;;;;;;;79.92;33.60;;;;;;;-3.52;74.17;96380.27;1683479;84;27595;-85
2020/12/11 03:51:21;;;;;;;75.08;31.02;;;;;;;-3.55;74.32;96380.55;1683426;84;25840;-84
2020/12/11 03:53:48;;;;;;;73.62;31.82;;;;;;;-3.56;74.33;96381.53;1683440;84;25766;-91
2020/12/11 03:56:17;;;;;;;77.85;32.20;;;;;;;-3.53;74.39;96378.11;1683375;84;25885;-84
2020/12/11 03:58:45;;;;;;;72.58;31.05;;;;;;;-3.54;74.38;96383.05;1683547;84;25863;-87
2020/12/11 04:01:15;;;;;;;71.90;29.80;;;;;;;-3.51;74.36;96391.98;1683488;84;27503;-87
2020/12/11 04:03:43;;;;;;;70.12;29.98;;;;;;;-3.51;74.26;96388.03;1683248;84;26621;-83
2020/12/11 04:06:14;;;;;;;71.35;30.95;;;;;;;-3.53;74.25;96392.62;1683507;84;25813;-84
2020/12/11 04:08:43;;;;;;;70.33;31.53;;;;;;;-3.52;74.14;96390.33;1683701;84;26779;-85
2020/12/11 04:11:13;;;;;;;66.35;29.63;;;;;;;-3.56;74.13;96385.00;1683481;84;25753;-85
2020/12/11 04:13:41;;;;;;;72.53;31.45;;;;;;;-3.57;74.05;96385.98;1683428;84;28765;-85
2020/12/11 04:16:10;;;;;;;72.05;30.80;;;;;;;-3.62;73.97;96387.42;1683437;84;25720;-86
2020/12/11 04:18:38;;;;;;;67.42;31.05;;;;;;;-3.64;73.98;96386.25;1683445;84;25818;-85
2020/12/11 04:21:05;;;;;;;71.40;29.85;;;;;;;-3.65;73.98;96388.54;1683405;84;25717;-84
2020/12/11 04:23:32;;;;;;;71.90;30.97;;;;;;;-3.69;73.95;96384.53;1682509;84;25892;-84
2020/12/11 04:26:00;;;;;;;67.60;31.37;;;;;;;-3.71;73.98;96393.07;1683422;84;27560;-84
2020/12/11 04:28:27;;;;;;;67.10;30.77;;;;;;;-3.72;73.88;96388.77;1684377;84;25772;-86
2020/12/11 04:30:54;;;;;;;66.02;30.60;;;;;;;-3.72;73.94;96390.92;1688997;83;25799;-83
2020/12/11 04:33:22;;;;;;;68.28;30.17;;;;;;;-3.75;73.88;96391.73;1688789;83;25824;-84
2020/12/11 04:35:49;;;;;;;71.15;31.90;;;;;;;-3.76;73.93;96396.66;1687754;83;25832;-88
2020/12/11 04:38:17;;;;;;;77.35;32.38;;;;;;;-3.78;73.96;96393.33;1687363;83;27510;-84
2020/12/11 04:40:45;;;;;;;72.65;31.23;;;;;;;-3.84;73.81;96394.73;1688809;83;25800;-93
2020/12/11 04:43:13;;;;;;;67.87;29.12;;;;;;;-3.95;73.82;96394.94;1686468;84;25797;-83
2020/12/11 04:45:41;;;;;;;69.27;30.68;;;;;;;-3.93;74.07;96392.16;1693158;83;25828;-93
2020/12/11 04:48:11;;;;;;;72.32;30.50;;;;;;;-3.90;74.03;96398.47;1704557;82;27072;-83
2020/12/11 04:50:39;;;;;;;71.00;29.95;;;;;;;-3.93;74.04;96393.48;1704339;82;27571;-84
2020/12/11 04:53:08;;;;;;;91.00;34.48;;;;;;;-3.95;73.89;96392.79;1703306;82;25830;-83
2020/12/11 04:55:35;;;;;;;117.00;41.92;;;;;;;-4.12;73.69;96396.56;1695232;84;26296;-84
2020/12/11 04:58:05;;;;;;;139.25;49.55;;;;;;;-4.17;73.89;96390.88;1704407;82;25928;-83
2020/12/11 05:00:33;;;;;;;148.55;49.85;;;;;;;-4.16;73.95;96395.18;1704307;82;26380;-89
2020/12/11 05:03:01;;;;;;;138.65;46.80;;;;;;;;;;1704374;82;27577;-93
2020/12/11 05:05:28;;;;;;;140.65;47.17;;;;;;;-4.18;73.92;96391.86;1704468;84;25833;-90
2020/12/11 05:07:55;;;;;;;127.87;44.08;;;;;;;-4.21;73.94;96393.94;1703876;82;26465;-83
2020/12/11 05:10:23;;;;;;;107.58;40.92;;;;;;;-4.25;74.02;96396.06;1701302;84;26763;-83
2020/12/11 05:12:52;;;;;;;120.13;44.63;;;;;;;-4.26;74.04;96401.47;1701087;84;25758;-83
2020/12/11 05:15:22;;;;;;;113.00;47.08;;;;;;;-4.27;74.17;96392.73;1701098;84;27614;-83
2020/12/11 05:17:49;;;;;;;112.08;47.00;;;;;;;-4.24;74.20;96389.81;1700998;84;26345;-83
2020/12/11 05:20:16;;;;;;;111.03;47.85;;;;;;;-4.22;74.24;96392.28;1700778;84;25848;-84
2020/12/11 05:22:43;;;;;;;106.17;45.10;;;;;;;-4.18;74.19;96389.70;1701054;84;26388;-83
2020/12/11 05:25:13;;;;;;;100.60;42.70;;;;;;;-4.20;74.19;96390.33;1701018;84;25826;-83
2020/12/11 05:27:47;;;;;;;98.22;43.08;;;;;;;-4.18;74.28;96387.91;1698237;84;27425;-84
2020/12/11 05:30:20;;;;;;;99.20;40.60;;;;;;;-4.16;74.17;96395.18;1700902;84;25787;-83
2020/12/11 05:32:53;;;;;;;99.20;43.13;;;;;;;-4.17;74.13;96387.41;1701133;84;25779;-83
2020/12/11 05:35:26;;;;;;;120.72;50.80;;;;;;;-4.14;74.24;96398.50;1701029;84;25847;-83
2020/12/11 05:38:07;;;;;;;171.32;69.55;;;;;;;-4.16;74.25;96397.81;1701125;84;25763;-82
2020/12/11 05:40:41;;;;;;;185.22;67.37;;;;;;;-4.13;74.28;96398.85;1701090;84;27512;-83
2020/12/11 05:43:20;;;;;;;158.85;63.63;;;;;;;-4.09;74.36;96408.59;1700969;84;25703;-82
2020/12/11 05:45:56;;;;;;;149.65;59.25;;;;;;;-4.05;74.34;96405.53;1697626;84;25819;-85
2020/12/11 05:48:38;;;;;;;148.13;58.55;;;;;;;-4.04;74.31;96399.29;1683293;84;25833;-84
2020/12/11 05:51:18;;;;;;;148.57;57.50;;;;;;;-4.01;74.31;96398.17;1683699;84;25848;-85
2020/12/11 05:53:45;;;;;;;147.02;58.23;;;;;;;-4.07;74.14;96406.16;1683454;84;27504;-84
2020/12/11 05:56:13;;;;;;;145.65;55.85;;;;;;;-4.08;74.14;96409.77;1683393;84;26444;-83
2020/12/11 05:58:42;;;;;;;149.77;63.08;;;;;;;-4.04;74.14;96413.78;1683315;84;25841;-83
2020/12/11 06:01:18;;;;;;;161.73;64.45;;;;;;;-4.06;74.00;96406.51;1683301;84;25898;-85
2020/12/11 06:03:46;;;;;;;160.28;63.40;;;;;;;-4.07;73.98;96407.48;1682709;84;25871;-83
2020/12/11 06:06:16;;;;;;;154.30;61.55;;;;;;;-4.09;74.01;96398.05;1683386;84;26809;-83
2020/12/11 06:08:46;;;;;;;177.80;68.50;;;;;;;-4.14;74.01;96397.67;1682888;84;26051;-83
2020/12/11 06:11:25;;;;;;;189.65;75.03;;;;;;;-4.21;73.94;96404.00;1683292;84;25817;-84
2020/12/11 06:13:59;;;;;;;176.47;71.02;;;;;;;-4.23;74.03;96413.88;1683239;84;25945;-83
2020/12/11 06:16:28;;;;;;;180.82;70.32;;;;;;;-4.20;74.10;96408.78;1682966;84;25693;-85
2020/12/11 06:19:01;;;;;;;173.57;68.28;;;;;;;-4.22;73.92;96416.83;1682491;84;27205;-84
2020/12/11 06:21:30;;;;;;;188.57;75.95;;;;;;;-4.26;73.75;96423.38;1683188;84;25811;-83
2020/12/11 06:23:58;;;;;;;195.07;77.80;;;;;;;-4.38;73.76;96417.45;1683284;84;25733;-83
2020/12/11 06:26:25;;;;;;;200.13;77.58;;;;;;;-4.36;73.98;96419.95;1683412;84;25904;-83
2020/12/11 06:28:53;;;;;;;204.13;76.55;;;;;;;-4.34;74.08;96423.25;1683107;84;25894;-83
2020/12/11 06:31:22;;;;;;;210.57;77.22;;;;;;;-4.35;74.03;96424.25;1683207;84;27567;-84
2020/12/11 06:33:57;;;;;;;198.23;76.10;;;;;;;-4.42;73.99;96424.45;1683233;84;25761;-90
2020/12/11 06:36:25;;;;;;;189.43;72.40;;;;;;;-4.46;74.08;96423.07;1683371;84;25832;-83
2020/12/11 06:38:59;;;;;;;171.55;67.22;;;;;;;-4.46;74.23;96427.02;1683107;84;25829;-88
2020/12/11 06:41:36;;;;;;;196.30;72.42;;;;;;;-4.41;74.35;96430.08;1683296;84;25865;-83
2020/12/11 06:44:14;;;;;;;163.25;67.15;;;;;;;-4.40;74.26;96433.05;1683409;84;28494;-85
2020/12/11 06:46:42;;;;;;;167.03;64.97;;;;;;;-4.38;74.25;96435.06;1689101;84;26213;-83
2020/12/11 06:49:17;;;;;;;177.75;68.87;;;;;;;-4.35;74.26;96433.47;1697552;84;25973;-84
2020/12/11 06:51:52;;;;;;;162.88;64.97;;;;;;;-4.34;74.22;96441.69;1697952;84;26850;-83
2020/12/11 06:54:25;;;;;;;186.80;71.47;;;;;;;-4.36;74.17;96438.39;1698297;84;25863;-88
2020/12/11 06:56:57;;;;;;;189.47;74.25;;;;;;;-4.33;74.28;96431.98;1698165;82;28444;-93
2020/12/11 06:59:39;;;;;;;183.10;69.55;;;;;;;-4.30;74.35;96433.85;1697896;82;25793;-83
2020/12/11 07:02:15;;;;;;;193.57;72.58;;;;;;;-4.25;74.34;96427.68;1698248;82;25763;-82
2020/12/11 07:04:48;;;;;;;181.12;71.17;;;;;;;-4.23;74.36;96419.15;1698149;82;26477;-83
2020/12/11 07:07:15;;;;;;;;;;;;;;;-4.20;74.40;96421.95;1700648;84;25982;-92
2020/12/11 07:09:48;;;;;;;196.30;71.25;;;;;;;-4.20;74.42;96412.25;1698061;82;28417;-85
2020/12/11 07:12:16;;;;;;;192.00;72.35;;;;;;;-4.18;74.49;96410.79;1698176;82;25771;-89
2020/12/11 07:14:45;;;;;;;179.63;71.37;;;;;;;-4.16;74.50;96403.58;1697903;84;26355;-83
2020/12/11 07:17:27;;;;;;;190.47;72.72;;;;;;;-4.12;74.49;96411.05;1697744;84;26760;-83
2020/12/11 07:19:55;;;;;;;;;;;;;;;-4.07;74.52;96408.80;1700863;84;25760;-87
2020/12/11 07:22:22;;;;;;;191.60;70.95;;;;;;;-4.03;74.56;96404.91;1698174;84;28451;-83
2020/12/11 07:24:50;;;;;;;195.68;76.62;;;;;;;-3.98;74.63;96404.97;1698205;84;26363;-83
2020/12/11 07:27:17;;;;;;;198.82;78.05;;;;;;;-3.94;74.73;96403.19;1698041;84;25784;-83
2020/12/11 07:29:51;;;;;;;211.85;82.10;;;;;;;-3.85;74.81;96393.56;1698032;84;26114;-90
2020/12/11 07:32:21;;;;;;;196.45;82.08;;;;;;;-3.81;74.81;96396.25;1698178;84;25842;-87
2020/12/11 07:34:49;;;;;;;184.43;78.33;;;;;;;-3.76;74.87;96391.38;1698088;84;27567;-86
2020/12/11 07:37:16;;;;;;;185.20;81.05;;;;;;;-3.66;74.91;96398.74;1698025;84;26279;-83
2020/12/11 07:39:44;;;;;;;182.22;78.97;;;;;;;-3.61;74.98;96396.47;1698184;84;25804;-84
2020/12/11 07:42:11;;;;;;;172.22;79.58;;;;;;;-3.49;75.00;96390.01;1698091;84;26894;-84
2020/12/11 07:44:40;;;;;;;217.43;88.12;;;;;;;-3.40;75.06;96387.81;1698192;84;25924;-84
2020/12/11 07:47:14;;;;;;;246.00;99.95;;;;;;;-3.26;75.16;96391.74;1698052;84;27703;-83
2020/12/11 07:49:47;;;;;;;233.55;94.95;;;;;;;-3.16;75.14;96392.49;1698076;84;25810;-84
2020/12/11 07:52:22;;;;;;;190.43;87.12;;;;;;;-3.07;75.11;96398.66;1698169;84;25955;-86
2020/12/11 07:54:46;;;;;;;206.97;87.85;;;;;;;-2.99;75.09;96409.28;1697618;83;26981;-84
2020/12/11 08:00:05;;;;;;;229.45;92.40;;;;;;;-2.85;75.03;96408.75;1886520;76;34718;-91
2020/12/11 08:02:34;;;;;;;237.30;94.28;;;;;;;-2.83;75.06;96410.75;1840040;75;26295;-84
2020/12/11 08:05:08;;;;;;;225.30;98.52;;;;;;;-2.78;75.00;96415.09;1831602;77;27488;-83
2020/12/11 08:07:35;;;;;;;204.75;86.15;;;;;;;-2.76;74.99;96407.83;1829450;75;26208;-84
2020/12/11 08:10:15;;;;;;;193.90;86.17;;;;;;;-2.72;74.97;96403.91;1857102;77;25791;-85
2020/12/11 08:12:44;;;;;;;176.32;77.32;;;;;;;-2.67;74.98;96399.00;1831829;75;25828;-89
2020/12/11 08:15:16;;;;;;;170.15;77.40;;;;;;;-2.65;74.95;96396.18;1813757;77;25763;-83
2020/12/11 08:17:44;;;;;;;131.50;59.93;;;;;;;-2.60;74.99;96394.75;1801913;75;27499;-83
2020/12/11 08:20:11;;;;;;;171.62;78.12;;;;;;;-2.52;74.98;96395.28;1834179;75;25759;-89
2020/12/11 08:22:41;;;;;;;176.00;79.53;;;;;;;-2.46;74.99;96389.88;1813386;75;25817;-86
2020/12/11 08:25:22;;;;;;;183.18;82.47;;;;;;;-2.33;75.07;96381.05;1834810;75;25378;-85
2020/12/11 08:27:54;;;;;;;210.60;94.35;;;;;;;-2.23;75.08;96390.52;1827898;76;26305;-86
2020/12/11 08:30:23;;;;;;;196.45;90.07;;;;;;;-2.12;75.10;96386.77;1837948;75;27498;-86
2020/12/11 08:32:51;;;;;;;192.15;91.57;;;;;;;-2.01;75.15;96389.14;1826527;77;25785;-86
2020/12/11 08:35:23;;;;;;;176.20;86.72;;;;;;;-1.89;75.19;96378.61;1823792;76;25705;-87
2020/12/11 08:37:57;;;;;;;135.78;69.20;;;;;;;-1.75;75.27;96382.47;1838745;77;26382;-88
2020/12/11 08:40:27;;;;;;;130.60;67.00;;;;;;;-1.60;75.26;96382.69;1837236;75;25833;-86
2020/12/11 08:43:13;;;;;;;135.88;68.22;;;;;;;-1.43;75.23;96386.19;1797766;77;28394;-86
2020/12/11 08:45:39;;;;;;;141.83;70.77;;;;;;;-1.27;75.16;96387.56;1753783;80;26126;-87
2020/12/11 08:51:05;;;;;;;192.25;98.85;;;;;;;-0.90;74.92;96385.78;1725434;81;25742;-89
2020/12/11 08:53:36;;;;;;;191.62;97.08;;;;;;;-0.65;74.91;96387.93;1783288;78;25769;-87
2020/12/11 08:56:08;;;;;;;189.13;97.40;;;;;;;-0.48;74.47;96381.60;1782451;78;27684;-87
2020/12/11 08:58:36;;;;;;;179.87;96.22;;;;;;;-0.48;74.30;96382.43;1780392;78;25814;-88
2020/12/11 09:01:05;;;;;;;186.80;99.42;;;;;;;-0.39;74.39;96378.80;1779609;78;25762;-88
2020/12/11 09:03:32;;;;;;;194.07;100.05;;;;;;;-0.33;74.10;96377.77;1803275;78;25423;-88
2020/12/11 09:05:59;;;;;;;218.22;110.08;;;;;;;-0.37;73.94;96376.81;1793947;78;25810;-87
2020/12/11 09:08:27;;;;;;;209.70;106.52;;;;;;;-0.37;74.18;96375.48;1788629;78;27571;-88
2020/12/11 09:10:54;;;;;;;206.87;105.30;;;;;;;-0.17;74.67;96375.09;1785987;78;25824;-88
2020/12/11 09:13:22;;;;;;;203.62;103.15;;;;;;;0.02;74.64;96376.02;1800300;78;25872;-89
2020/12/11 09:15:49;;;;;;;194.07;99.15;;;;;;;0.21;74.57;96363.70;1741390;80;26359;-89
2020/12/11 09:18:17;;;;;;;195.47;96.95;;;;;;;0.42;74.54;96363.59;1793361;78;26265;-89
2020/12/11 09:20:45;;;;;;;156.78;80.38;;;;;;;0.64;74.42;96357.48;1785528;79;27496;-87
2020/12/11 09:23:13;;;;;;;183.60;90.17;;;;;;;0.85;74.39;96351.53;1788637;78;25691;-88
2020/12/11 09:25:40;;;;;;;180.45;94.30;;;;;;;1.05;74.31;96341.61;1811705;78;25778;-86
2020/12/11 09:28:12;;;;;;;176.05;89.65;;;;;;;1.27;74.12;96341.76;1796601;78;25972;-86
2020/12/11 09:30:39;;;;;;;174.97;87.75;;;;;;;1.50;74.08;96331.91;1789382;78;25734;-86
2020/12/11 09:33:12;;;;;;;153.00;82.80;;;;;;;1.70;73.90;96330.36;1789116;78;27742;-86
2020/12/11 09:35:36;;;;;;;159.45;84.42;;;;;;;1.96;73.90;96329.09;1776632;78;25691;-84
2020/12/11 09:38:04;;;;;;;150.42;81.20;;;;;;;2.17;73.67;96325.99;1776941;78;25751;-85
2020/12/11 09:40:38;;;;;;;130.35;71.67;;;;;;;2.51;73.45;96320.59;1783898;78;25723;-87
2020/12/11 09:46:10;;;;;;;122.62;62.25;;;;;;;3.10;73.01;96310.53;1761559;78;29064;-88
2020/12/11 09:48:36;;;;;;;118.20;62.78;;;;;;;3.40;72.70;96316.52;1769060;79;26331;-87
2020/12/11 09:51:21;;;;;;;137.57;76.45;;;;;;;3.59;72.31;96321.71;1778656;78;25833;-88
2020/12/11 09:56:39;;;;;;;149.07;84.20;;;;;;;3.81;71.67;96316.62;1775754;78;25829;-88
2020/12/11 09:59:13;;;;;;;168.65;92.88;;;;;;;3.84;71.26;96309.56;1798553;78;28519;-90
2020/12/11 10:04:31;;;;;;;190.18;103.15;;;;;;;3.92;71.11;96309.41;1767726;79;25818;-92
2020/12/11 10:06:59;;;;;;;179.95;98.82;;;;;;;4.00;70.93;96308.41;1770758;78;26147;-91
2020/12/11 10:09:28;;;;;;;171.47;92.85;;;;;;;4.12;71.10;96304.67;1770704;78;25357;-87
2020/12/11 10:11:56;;;;;;;188.00;101.42;;;;;;;4.16;70.61;96303.27;1771012;78;26756;-88
2020/12/11 10:14:29;;;;;;;191.07;102.12;;;;;;;4.24;70.66;96300.41;1791979;78;25686;-88
2020/12/11 10:16:55;;;;;;;185.70;97.45;;;;;;;4.41;70.77;96292.89;1789645;78;25681;-86
2020/12/11 10:19:24;;;;;;;183.62;95.67;;;;;;;4.59;70.52;96283.28;1789589;78;26334;-93
2020/12/11 10:21:54;;;;;;;160.32;91.70;;;;;;;4.70;70.05;96274.70;1798864;78;25750;-87
2020/12/11 10:24:23;;;;;;;159.18;89.65;;;;;;;4.71;69.65;96272.31;1782041;78;27564;-92
2020/12/11 10:26:50;;;;;;;153.78;86.25;;;;;;;4.89;69.76;96274.93;1784400;78;26144;-86
2020/12/11 10:29:18;;;;;;;140.00;80.72;;;;;;;5.03;69.97;96267.24;1783532;78;25727;-87
2020/12/11 10:31:45;;;;;;;125.02;69.70;;;;;;;5.30;70.26;96260.88;1783128;78;25812;-93
2020/12/11 10:34:15;;;;;;;116.93;65.60;;;;;;;5.55;69.71;96257.58;1776485;78;25723;-85
2020/12/11 10:36:43;;;;;;;110.22;62.75;;;;;;;5.69;69.13;96245.79;1788905;78;28817;-84
2020/12/11 10:39:12;;;;;;;102.00;57.48;;;;;;;5.76;69.42;96245.28;1777836;78;26444;-90
2020/12/11 10:41:39;;;;;;;93.70;53.65;;;;;;;5.93;69.16;96249.16;1798844;78;25335;-91
2020/12/11 10:44:07;;;;;;;93.05;55.03;;;;;;;6.04;68.66;96248.52;1802953;78;25797;-91
2020/12/11 10:46:34;;;;;;;86.85;52.33;;;;;;;6.14;68.95;96244.89;1802979;78;25718;-92
2020/12/11 10:49:02;;;;;;;88.78;54.05;;;;;;;6.50;69.05;96250.20;1786685;78;27598;-89
2020/12/11 10:51:37;;;;;;;96.55;56.00;;;;;;;6.84;68.73;96247.12;1792813;79;26397;-90
2020/12/11 10:54:04;;;;;;;91.92;53.87;;;;;;;7.04;68.15;96240.78;1770496;78;25370;-93
2020/12/11 10:56:32;;;;;;;92.62;54.53;;;;;;;6.91;67.29;96245.72;1784637;78;25886;-92
2020/12/11 10:58:59;;;;;;;92.02;53.25;;;;;;;6.99;67.58;96240.63;1789002;78;25823;-93
2020/12/11 11:01:26;;;;;;;87.65;51.55;;;;;;;7.07;66.94;96240.36;1773855;78;27464;-91
2020/12/11 11:03:54;;;;;;;95.32;53.23;;;;;;;7.00;66.71;96241.77;1776155;78;25778;-87
2020/12/11 11:06:25;;;;;;;85.28;52.67;;;;;;;7.06;67.10;96238.72;1791737;78;25890;-92
2020/12/11 11:09:01;;;;;;;74.72;44.88;;;;;;;7.04;66.58;96231.39;1773028;78;25849;-93
2020/12/11 11:11:27;;;;;;;77.60;45.30;;;;;;;7.22;67.18;96235.50;1774982;78;25877;-87
2020/12/11 11:14:11;;;;;;;69.15;41.45;;;;;;;7.41;66.85;96229.14;1778881;78;27502;-92
2020/12/11 11:16:45;;;;;;;64.05;38.73;;;;;;;7.51;66.45;96220.05;1777852;78;25802;-89
2020/12/11 11:19:11;;;;;;;74.58;45.73;;;;;;;7.69;66.54;96209.88;1766173;79;25861;-90
2020/12/11 11:21:51;;;;;;;82.55;51.33;;;;;;;8.04;66.31;96211.46;1766855;78;25727;-93
2020/12/11 11:24:20;;;;;;;85.85;52.95;;;;;;;8.28;66.16;96205.17;1772133;78;25921;-92
2020/12/11 11:29:30;;;;;;;78.47;46.90;;;;;;;8.12;64.89;96206.30;1768698;78;25745;-90
2020/12/11 11:31:58;;;;;;;65.15;38.92;;;;;;;8.12;64.88;96208.46;1762781;79;25839;-91
2020/12/11 11:34:25;;;;;;;72.22;41.58;;;;;;;8.09;64.94;96204.08;1770363;79;25745;-88
2020/12/11 11:36:55;;;;;;;68.37;41.83;;;;;;;8.17;64.29;96204.59;1770445;79;26321;-88
2020/12/11 11:39:22;;;;;;;50.15;30.25;;;;;;;7.94;64.16;96200.42;1762874;79;27487;-85
2020/12/11 11:41:55;;;;;;;40.75;25.25;;;;;;;7.97;64.43;96193.23;1762840;79;26392;-92